Time;durP1;ratioP1;P1;durP2;ratioP2;P2;SDS_P1;SDS_P2;PMS_P1;PMS_P2;Temp;Humidity;BMP_temperature;BMP_pressure;BME280_temperature;BME280_humidity;BME280_pressure;Samples;Min_cycle;Max_cycle;Signal;HPM_P1;HPM_P2
2023/01/31 00:01:11;;;;;;;25.47;12.67;;;;;;;1.62;67.43;94593.59;5031932;28;20206;-72
2023/01/31 00:03:39;;;;;;;30.43;13.27;;;;;;;1.60;68.32;94604.47;5032979;28;20206;-70
2023/01/31 00:06:13;;;;;;;25.47;12.37;;;;;;;1.60;67.95;94604.47;5032648;28;20264;-72
2023/01/31 00:08:42;;;;;;;22.30;12.10;;;;;;;1.35;68.33;94582.09;5032820;28;20206;-72
2023/01/31 00:11:09;;;;;;;21.50;11.83;;;;;;;1.50;68.89;94607.84;5031631;28;20285;-72
2023/01/31 00:13:36;;;;;;;26.83;13.40;;;;;;;1.57;68.02;94594.47;5032800;28;20207;-73
2023/01/31 00:16:03;;;;;;;26.33;12.37;;;;;;;1.56;69.22;94597.81;5030372;28;20211;-73
2023/01/31 00:18:30;;;;;;;23.63;11.57;;;;;;;1.50;68.59;94602.84;5032254;28;20493;-73
2023/01/31 00:20:57;;;;;;;22.87;11.67;;;;;;;1.48;68.79;94600.38;5032548;28;20227;-72
2023/01/31 00:23:24;;;;;;;24.30;12.50;;;;;;;1.48;68.51;94595.38;5032238;28;20210;-71
2023/01/31 00:25:52;;;;;;;22.77;11.60;;;;;;;1.41;69.47;94597.91;5032057;28;20264;-71
2023/01/31 00:28:18;;;;;;;17.13;10.10;;;;;;;1.43;69.90;94598.75;5032876;28;20945;-72
2023/01/31 00:30:45;;;;;;;20.70;11.80;;;;;;;1.38;69.09;94592.91;5031262;28;20592;-72
2023/01/31 00:33:12;;;;;;;17.43;10.77;;;;;;;1.39;69.76;94594.59;5031000;28;20245;-72
2023/01/31 00:35:40;;;;;;;24.57;12.17;;;;;;;1.20;70.43;94579.69;5031504;28;20207;-72
2023/01/31 00:38:07;;;;;;;21.77;11.57;;;;;;;1.35;70.60;94588.75;5032050;28;20541;-72
2023/01/31 00:40:34;;;;;;;22.07;11.67;;;;;;;1.53;70.63;94592.81;5030793;28;20704;-72
2023/01/31 00:43:03;;;;;;;22.80;11.43;;;;;;;1.58;69.30;94598.63;5031573;28;20839;-72
2023/01/31 00:45:29;;;;;;;17.80;10.83;;;;;;;1.45;70.40;94607.06;5031726;28;20211;-72
2023/01/31 00:47:56;;;;;;;21.27;10.50;;;;;;;1.30;70.53;94596.28;5032033;28;20673;-70
2023/01/31 00:50:24;;;;;;;15.23;10.27;;;;;;;1.31;70.71;94592.94;5031582;28;20199;-71
2023/01/31 00:52:51;;;;;;;16.20;9.57;;;;;;;1.40;70.92;94592.06;5031329;28;20199;-71
2023/01/31 00:55:18;;;;;;;21.50;10.30;;;;;;;1.46;70.92;94587.03;5031930;28;20206;-72
2023/01/31 00:57:44;;;;;;;18.03;10.90;;;;;;;1.50;71.02;94587.81;5031165;28;20217;-71
2023/01/31 01:00:14;;;;;;;22.43;11.20;;;;;;;1.50;70.51;94590.31;5031605;28;20230;-71
2023/01/31 01:02:41;;;;;;;20.27;10.60;;;;;;;1.45;70.45;94599.56;5031151;28;21162;-71
2023/01/31 01:05:08;;;;;;;22.37;10.00;;;;;;;1.48;69.95;94604.56;5031912;28;20214;-71
2023/01/31 01:07:35;;;;;;;20.07;11.03;;;;;;;1.53;70.91;94607.84;5030689;28;20257;-72
2023/01/31 01:10:02;;;;;;;16.83;9.83;;;;;;;1.52;69.77;94611.19;5031273;28;20211;-72
2023/01/31 01:12:29;;;;;;;16.50;9.60;;;;;;;1.54;69.50;94607.00;5029632;28;20288;-72
2023/01/31 01:14:56;;;;;;;18.50;11.23;;;;;;;1.51;70.17;94615.34;5031237;28;20211;-72
2023/01/31 01:17:24;;;;;;;18.80;9.67;;;;;;;1.55;69.78;94598.66;5030904;28;20208;-72
2023/01/31 01:19:51;;;;;;;15.90;9.53;;;;;;;1.58;69.97;94601.97;5031477;28;20226;-72
2023/01/31 01:22:17;;;;;;;19.50;10.00;;;;;;;1.59;69.72;94607.81;5030233;28;20657;-71
2023/01/31 01:24:44;;;;;;;17.63;10.47;;;;;;;1.63;69.20;94594.44;5030742;28;20211;-71
2023/01/31 01:27:12;;;;;;;15.27;9.17;;;;;;;1.61;68.98;94591.09;5030787;28;20601;-72
2023/01/31 01:29:40;;;;;;;17.77;10.63;;;;;;;1.62;68.96;94597.78;5031140;28;20207;-72
2023/01/31 01:32:07;;;;;;;17.97;10.67;;;;;;;1.59;69.16;94597.78;5030045;28;20243;-72
2023/01/31 01:34:36;;;;;;;17.83;10.73;;;;;;;1.52;68.45;94576.13;5031625;28;20211;-73
2023/01/31 01:37:10;;;;;;;19.27;10.20;;;;;;;1.62;69.48;94593.59;5030313;28;20218;-71
2023/01/31 01:39:37;;;;;;;16.97;10.60;;;;;;;1.59;68.82;94592.78;5030885;28;20248;-71
2023/01/31 01:42:05;;;;;;;17.93;10.70;;;;;;;1.70;68.74;94581.84;5029536;28;20211;-72
2023/01/31 01:44:48;;;;;;;16.57;11.07;;;;;;;1.66;69.15;94599.41;5030810;28;20719;-71
2023/01/31 01:47:33;;;;;;;18.60;10.07;;;;;;;1.72;68.54;94589.38;5030442;28;20215;-71
2023/01/31 01:50:07;;;;;;;19.43;10.40;;;;;;;1.80;67.72;94601.81;5030387;28;20751;-71
2023/01/31 01:52:39;;;;;;;17.77;10.40;;;;;;;1.74;68.44;94602.69;5030128;28;20226;-71
2023/01/31 01:55:11;;;;;;;21.83;10.17;;;;;;;1.70;68.07;94596.88;5030968;28;20225;-72
2023/01/31 01:57:41;;;;;;;19.03;9.67;;;;;;;1.77;66.78;94596.81;5030072;28;20211;-71
2023/01/31 02:00:15;;;;;;;16.20;8.73;;;;;;;1.82;66.09;94595.13;5030517;28;20242;-72
2023/01/31 02:02:44;;;;;;;18.23;9.30;;;;;;;1.80;65.74;94581.78;5029569;28;20215;-72
2023/01/31 02:05:15;;;;;;;13.63;8.77;;;;;;;1.80;65.59;94592.63;5030231;28;20696;-72
2023/01/31 02:07:43;;;;;;;13.37;7.10;;;;;;;1.66;64.36;94575.22;5029865;28;20736;-72
2023/01/31 02:10:15;;;;;;;11.53;8.03;;;;;;;1.86;63.97;94609.28;5030350;28;20207;-71
2023/01/31 02:12:42;;;;;;;13.00;7.93;;;;;;;1.79;63.66;94603.47;5028092;28;20677;-73
2023/01/31 02:15:10;;;;;;;11.43;7.07;;;;;;;1.85;62.90;94600.94;5029166;28;20206;-72
2023/01/31 02:17:37;;;;;;;13.70;7.63;;;;;;;1.89;62.88;94607.59;5030360;28;20203;-72
2023/01/31 02:20:22;;;;;;;8.70;7.13;;;;;;;1.87;63.23;94593.41;5030399;28;20222;-72
2023/01/31 02:23:06;;;;;;;10.93;6.33;;;;;;;1.82;63.56;94600.97;5029676;28;20211;-72
2023/01/31 02:26:01;;;;;;;12.10;6.37;;;;;;;1.72;63.98;94599.38;5029437;28;20246;-72
2023/01/31 02:28:53;;;;;;;9.50;5.93;;;;;;;1.73;63.38;94601.06;5030075;28;20214;-73
2023/01/31 02:31:59;;;;;;;10.00;6.97;;;;;;;1.73;63.38;94606.06;5030487;28;20242;-72
2023/01/31 02:34:35;;;;;;;7.13;6.07;;;;;;;1.74;63.44;94614.38;5029118;28;21284;-72
2023/01/31 02:37:16;;;;;;;11.03;7.47;;;;;;;1.85;63.16;94600.94;5030223;28;20206;-71
2023/01/31 02:39:53;;;;;;;10.67;7.13;;;;;;;1.88;63.30;94610.13;5029518;28;20226;-71
2023/01/31 02:42:28;;;;;;;9.97;6.70;;;;;;;1.93;63.01;94609.25;5030106;28;20210;-71
2023/01/31 02:45:01;;;;;;;10.17;6.47;;;;;;;1.91;62.34;94605.91;5029209;28;20226;-72
2023/01/31 02:47:43;;;;;;;11.47;6.40;;;;;;;1.91;63.00;94608.41;5029919;28;20272;-72
2023/01/31 02:50:20;;;;;;;10.53;7.00;;;;;;;2.00;62.84;94612.50;5029288;28;20214;-72
2023/01/31 02:52:51;;;;;;;9.77;7.20;;;;;;;1.99;62.92;94623.38;5029176;28;20210;-71
2023/01/31 02:58:11;;;;;;;8.23;6.37;;;;;;;2.06;63.04;94635.03;5029335;28;20336;-70
2023/01/31 03:00:40;;;;;;;8.10;6.17;;;;;;;2.05;63.39;94644.22;5029891;28;20716;-72
2023/01/31 03:03:13;;;;;;;10.90;7.33;;;;;;;2.08;62.45;94640.03;5028968;28;20206;-74
2023/01/31 03:05:41;;;;;;;11.37;7.37;;;;;;;2.05;62.90;94644.22;5029167;28;20199;-73
2023/01/31 03:08:15;;;;;;;9.57;6.30;;;;;;;2.05;63.15;94664.25;5029512;28;20699;-72
2023/01/31 03:10:58;;;;;;;8.73;6.50;;;;;;;2.07;62.67;94661.75;5029120;28;20738;-72
2023/01/31 03:13:39;;;;;;;10.60;6.50;;;;;;;2.03;62.63;94660.94;5030103;28;20252;-72
2023/01/31 03:19:13;;;;;;;12.53;6.97;;;;;;;1.94;64.01;94683.56;5029194;28;20238;-72
2023/01/31 03:21:46;;;;;;;10.70;7.60;;;;;;;1.89;64.38;94687.78;5029759;28;20316;-72
2023/01/31 03:24:14;;;;;;;12.77;7.27;;;;;;;1.81;64.25;94679.47;5028760;28;20211;-73
2023/01/31 03:26:42;;;;;;;12.57;7.10;;;;;;;1.81;64.76;94688.66;5028912;28;20199;-74
2023/01/31 03:29:13;;;;;;;13.80;8.07;;;;;;;1.82;65.56;94692.81;5029645;28;20277;-73
2023/01/31 03:31:44;;;;;;;13.63;7.10;;;;;;;1.81;65.81;94694.50;5028812;28;20611;-72
2023/01/31 03:34:14;;;;;;;14.23;8.47;;;;;;;1.91;66.40;94691.09;5029436;28;20199;-72
2023/01/31 03:36:50;;;;;;;14.40;8.13;;;;;;;1.92;65.66;94691.94;5031639;28;20207;-72
2023/01/31 03:39:28;;;;;;;12.97;7.90;;;;;;;1.85;66.76;94697.81;5032522;28;20658;-72
2023/01/31 03:42:06;;;;;;;12.57;7.70;;;;;;;1.75;66.45;94703.72;5032946;28;20198;-73
2023/01/31 03:44:42;;;;;;;13.23;8.00;;;;;;;1.73;66.87;94711.25;5032206;28;20210;-72
2023/01/31 03:47:14;;;;;;;14.33;8.07;;;;;;;1.79;67.02;94720.41;5032794;28;20708;-72
2023/01/31 03:49:42;;;;;;;15.00;8.93;;;;;;;1.68;67.98;94712.97;5032139;28;20212;-72
2023/01/31 03:52:13;;;;;;;13.27;8.07;;;;;;;1.73;67.77;94716.28;5032945;28;20211;-72
2023/01/31 03:54:47;;;;;;;16.83;8.50;;;;;;;1.75;68.64;94709.56;5032231;28;20644;-73
2023/01/31 03:57:20;;;;;;;11.83;7.87;;;;;;;1.83;68.59;94717.03;5032914;28;20242;-73
2023/01/31 03:59:52;;;;;;;9.43;7.40;;;;;;;1.77;67.95;94724.56;5032342;28;20227;-73
2023/01/31 04:02:23;;;;;;;11.60;8.13;;;;;;;1.85;68.76;94718.69;5033026;28;22134;-73
2023/01/31 04:04:54;;;;;;;13.67;8.50;;;;;;;1.83;68.18;94712.84;5033459;28;20264;-72
2023/01/31 04:07:23;;;;;;;14.57;8.37;;;;;;;1.70;69.52;94712.09;5032373;28;20211;-72
2023/01/31 04:09:50;;;;;;;12.00;8.33;;;;;;;1.70;69.40;94717.13;5033802;28;20264;-71
2023/01/31 04:12:17;;;;;;;17.47;8.43;;;;;;;1.80;69.85;94727.06;5032830;28;20210;-71
2023/01/31 04:14:44;;;;;;;16.07;9.10;;;;;;;1.88;69.68;94720.34;5032198;28;20217;-72
2023/01/31 04:17:10;;;;;;;10.57;8.87;;;;;;;1.89;69.79;94722.03;5032281;28;20292;-73
2023/01/31 04:19:37;;;;;;;12.53;7.70;;;;;;;1.80;70.02;94717.06;5032848;28;20227;-72
2023/01/31 04:22:04;;;;;;;15.13;9.07;;;;;;;1.72;71.69;94707.09;5032445;28;20214;-72
2023/01/31 04:24:33;;;;;;;14.67;8.90;;;;;;;1.69;71.31;94710.44;5032927;28;20211;-72
2023/01/31 04:26:59;;;;;;;17.20;9.90;;;;;;;1.66;71.99;94712.13;5031149;28;21053;-72
2023/01/31 04:29:26;;;;;;;13.57;8.77;;;;;;;1.63;71.98;94719.66;5032237;28;20742;-73
2023/01/31 04:31:53;;;;;;;17.00;9.03;;;;;;;1.64;72.78;94714.63;5032279;28;20350;-72
2023/01/31 04:34:19;;;;;;;14.37;9.03;;;;;;;1.53;73.06;94718.00;5032566;28;21269;-72
2023/01/31 04:36:46;;;;;;;15.27;8.87;;;;;;;1.52;73.22;94727.19;5031546;28;20211;-73
2023/01/31 04:39:14;;;;;;;18.67;8.93;;;;;;;1.49;73.58;94724.72;5032154;28;20277;-73
2023/01/31 04:41:42;;;;;;;21.00;9.60;;;;;;;1.47;74.07;94728.09;5031656;28;20652;-72
2023/01/31 04:44:09;;;;;;;12.90;9.07;;;;;;;1.43;74.28;94732.28;5032232;28;20215;-74
2023/01/31 04:46:36;;;;;;;16.43;9.87;;;;;;;1.39;74.84;94740.63;5031778;28;20230;-72
2023/01/31 04:49:03;;;;;;;18.90;10.40;;;;;;;1.47;74.75;94738.09;5031955;28;20218;-72
2023/01/31 04:51:30;;;;;;;17.80;10.67;;;;;;;1.45;75.59;94750.63;5031873;28;20207;-73
2023/01/31 04:53:56;;;;;;;19.40;10.23;;;;;;;1.40;75.75;94741.47;5032517;28;20256;-72
2023/01/31 04:56:23;;;;;;;18.30;11.30;;;;;;;1.45;76.25;94739.78;5031082;28;20207;-71
2023/01/31 04:58:51;;;;;;;20.90;10.40;;;;;;;1.52;75.65;94742.22;5031697;28;20959;-73
2023/01/31 05:01:18;;;;;;;17.60;10.07;;;;;;;1.53;75.57;94743.06;5031719;28;20640;-73
2023/01/31 05:03:45;;;;;;;17.77;10.53;;;;;;;1.52;75.62;94746.41;5031720;28;20257;-73
2023/01/31 05:06:11;;;;;;;15.37;10.63;;;;;;;1.50;76.34;94750.59;5030753;28;20211;-75
2023/01/31 05:08:38;;;;;;;18.33;9.30;;;;;;;1.52;75.92;94752.25;5031827;28;20195;-74
2023/01/31 05:11:06;;;;;;;18.57;10.93;;;;;;;1.54;76.49;94754.75;5031708;28;20206;-74
2023/01/31 05:13:36;;;;;;;18.00;11.40;;;;;;;1.51;75.95;94763.09;5032009;28;20211;-74
2023/01/31 05:16:06;;;;;;;15.53;10.33;;;;;;;1.73;75.43;94761.38;5030119;28;20395;-73
2023/01/31 05:18:34;;;;;;;14.47;10.17;;;;;;;1.73;75.90;94761.38;5031245;28;20763;-75
2023/01/31 05:21:01;;;;;;;15.17;8.93;;;;;;;1.75;75.14;94753.81;5031400;28;20227;-75
2023/01/31 05:23:27;;;;;;;13.73;9.50;;;;;;;1.77;74.88;94752.13;5032063;28;20639;-75
2023/01/31 05:25:54;;;;;;;14.73;8.40;;;;;;;1.79;75.39;94756.31;5030969;28;20641;-75
2023/01/31 05:28:22;;;;;;;16.13;9.00;;;;;;;1.75;74.84;94747.13;5030950;28;20211;-74
2023/01/31 05:30:49;;;;;;;14.40;8.47;;;;;;;1.74;75.11;94763.00;5031057;28;20210;-73
2023/01/31 05:33:19;;;;;;;18.37;10.57;;;;;;;1.79;75.38;94755.47;5031164;28;20244;-73
2023/01/31 05:35:46;;;;;;;14.13;9.43;;;;;;;1.64;74.98;94723.81;5031564;28;20226;-73
2023/01/31 05:38:13;;;;;;;13.37;8.70;;;;;;;1.82;75.09;94751.28;5030736;28;20316;-74
2023/01/31 05:40:40;;;;;;;14.00;9.07;;;;;;;1.83;75.32;94750.44;5031263;28;20308;-75
2023/01/31 05:43:06;;;;;;;21.97;10.17;;;;;;;1.81;75.17;94754.63;5030903;28;20252;-73
2023/01/31 05:45:33;;;;;;;15.30;9.70;;;;;;;1.89;75.61;94777.97;5030126;28;20762;-73
2023/01/31 05:48:00;;;;;;;14.07;9.20;;;;;;;1.91;74.99;94770.44;5030393;28;20236;-74
2023/01/31 05:50:29;;;;;;;19.40;9.60;;;;;;;1.94;75.48;94771.28;5030566;28;20647;-73
2023/01/31 05:53:01;;;;;;;14.10;9.50;;;;;;;1.99;74.65;94776.25;5029125;28;20595;-73
2023/01/31 05:55:29;;;;;;;10.90;8.80;;;;;;;2.03;74.04;94781.22;5030775;28;20276;-73
2023/01/31 05:57:56;;;;;;;14.27;8.80;;;;;;;1.90;74.12;94759.59;5028495;28;20252;-75
2023/01/31 06:00:23;;;;;;;11.20;8.53;;;;;;;2.10;74.13;94774.50;5029137;28;20353;-73
2023/01/31 06:02:50;;;;;;;12.13;7.77;;;;;;;2.27;73.87;94779.41;5029112;28;20265;-74
2023/01/31 06:05:17;;;;;;;11.90;8.67;;;;;;;2.20;73.82;94782.84;5029240;28;20203;-74
2023/01/31 06:07:45;;;;;;;13.37;8.33;;;;;;;2.27;74.48;94775.25;5029283;28;20202;-74
2023/01/31 06:10:12;;;;;;;16.93;10.53;;;;;;;2.29;74.06;94782.75;5029374;28;20654;-72
2023/01/31 06:12:39;;;;;;;14.87;9.27;;;;;;;2.11;74.06;94753.63;5030891;28;20290;-74
2023/01/31 06:15:07;;;;;;;15.37;9.13;;;;;;;2.29;73.89;94762.69;5031368;28;20207;-74
2023/01/31 06:17:33;;;;;;;17.87;8.57;;;;;;;2.52;74.29;94765.88;5030029;28;20226;-74
2023/01/31 06:20:00;;;;;;;12.00;8.73;;;;;;;2.68;72.80;94777.47;5030284;28;20223;-74
2023/01/31 06:22:27;;;;;;;13.23;9.30;;;;;;;2.69;73.87;94780.81;5030351;28;20211;-73
2023/01/31 06:24:55;;;;;;;12.03;9.13;;;;;;;2.74;73.35;94786.59;5030531;28;20211;-73
2023/01/31 06:27:21;;;;;;;15.43;9.07;;;;;;;2.87;73.23;94787.34;5029718;28;20844;-74
2023/01/31 06:29:48;;;;;;;20.97;9.47;;;;;;;2.93;72.25;94782.28;5030829;28;20202;-73
2023/01/31 06:32:15;;;;;;;13.00;9.40;;;;;;;2.94;72.86;94777.25;5030336;28;20729;-75
2023/01/31 06:34:42;;;;;;;15.43;9.80;;;;;;;3.10;72.27;94784.63;5030934;28;20239;-74
2023/01/31 06:37:09;;;;;;;12.57;9.07;;;;;;;3.14;71.97;94777.06;5030213;28;20207;-74
2023/01/31 06:39:36;;;;;;;14.97;10.20;;;;;;;3.14;71.98;94786.28;5029668;28;20688;-74
2023/01/31 06:42:04;;;;;;;12.40;8.87;;;;;;;3.14;71.87;94777.06;5029765;28;20190;-73
2023/01/31 06:44:32;;;;;;;14.10;9.30;;;;;;;3.10;72.00;94787.97;5030349;28;20218;-74
2023/01/31 06:46:59;;;;;;;17.30;10.10;;;;;;;3.13;71.96;94790.47;5029642;28;20305;-73
2023/01/31 06:49:26;;;;;;;15.00;9.70;;;;;;;3.24;72.05;94788.66;5030464;28;20256;-72
2023/01/31 06:51:52;;;;;;;14.97;9.23;;;;;;;3.20;71.73;94792.06;5030354;28;20800;-74
2023/01/31 06:54:19;;;;;;;18.63;11.17;;;;;;;3.25;71.29;94795.34;5030224;28;20207;-74
2023/01/31 06:56:46;;;;;;;21.30;10.20;;;;;;;3.30;71.32;94792.78;5030220;28;20758;-74
2023/01/31 06:59:14;;;;;;;15.93;10.40;;;;;;;3.32;71.46;94781.88;5030386;28;20230;-73
2023/01/31 07:01:40;;;;;;;17.87;10.10;;;;;;;3.47;70.69;94797.63;5030439;28;20229;-72
2023/01/31 07:04:07;;;;;;;15.00;9.87;;;;;;;3.50;70.51;94792.59;5029948;28;20214;-74
2023/01/31 07:06:34;;;;;;;15.57;9.43;;;;;;;3.47;70.25;94785.91;5030596;28;20211;-74
2023/01/31 07:09:01;;;;;;;16.57;9.63;;;;;;;3.62;69.92;94805.03;5030241;28;20202;-72
2023/01/31 07:11:27;;;;;;;14.00;8.57;;;;;;;3.64;70.22;94810.88;5033154;28;20604;-74
2023/01/31 07:13:54;;;;;;;14.17;9.17;;;;;;;3.67;70.10;94808.34;5034067;28;20207;-72
2023/01/31 07:16:24;;;;;;;9.90;7.37;;;;;;;3.78;69.88;94804.00;5033880;28;20211;-76
2023/01/31 07:18:52;;;;;;;12.67;8.27;;;;;;;3.84;69.39;94810.63;5033008;28;20341;-75
2023/01/31 07:21:18;;;;;;;12.43;8.07;;;;;;;3.75;68.96;94796.50;5033901;28;20230;-75
2023/01/31 07:23:45;;;;;;;10.07;7.53;;;;;;;3.80;69.18;94809.84;5033654;28;20793;-74
2023/01/31 07:26:12;;;;;;;9.27;7.50;;;;;;;3.72;69.15;94811.59;5034146;28;20210;-74
2023/01/31 07:28:38;;;;;;;16.40;8.53;;;;;;;3.67;69.60;94809.16;5033599;28;20654;-74
2023/01/31 07:31:06;;;;;;;13.13;8.17;;;;;;;3.66;69.91;94804.16;5033940;28;20264;-72
2023/01/31 07:33:34;;;;;;;11.73;8.37;;;;;;;3.59;70.29;94800.03;5032782;28;20207;-74
2023/01/31 07:36:03;;;;;;;12.33;8.33;;;;;;;3.55;70.77;94804.25;5033527;28;20218;-74
2023/01/31 07:38:30;;;;;;;12.93;8.00;;;;;;;3.53;70.74;94810.13;5033475;28;20302;-76
2023/01/31 07:40:59;;;;;;;10.43;7.67;;;;;;;3.59;70.83;94815.94;5033840;28;20227;-75
2023/01/31 07:43:26;;;;;;;12.53;8.53;;;;;;;3.74;69.97;94827.50;5031775;28;20692;-76
2023/01/31 07:45:53;;;;;;;16.40;8.03;;;;;;;3.75;70.63;94821.63;5033646;28;20304;-75
2023/01/31 07:48:22;;;;;;;11.03;8.20;;;;;;;3.83;70.63;94819.03;5033574;28;20269;-73
2023/01/31 07:50:50;;;;;;;10.50;7.77;;;;;;;3.96;70.11;94818.84;5033268;28;20244;-75
2023/01/31 07:53:17;;;;;;;10.33;7.97;;;;;;;4.06;69.72;94822.94;5032597;28;20280;-75
2023/01/31 07:55:46;;;;;;;9.73;8.27;;;;;;;4.18;69.20;94814.41;5032789;28;20260;-75
2023/01/31 07:58:13;;;;;;;13.50;8.80;;;;;;;4.17;69.65;94814.44;5033226;28;20207;-76
2023/01/31 08:03:32;;;;;;;12.70;8.32;;;;;;;4.15;69.79;94831.22;5033208;28;20273;-73
2023/01/31 08:06:01;;;;;;;14.83;8.57;;;;;;;4.02;70.77;94811.25;5032338;28;20210;-75
2023/01/31 08:08:28;;;;;;;10.63;7.93;;;;;;;3.98;70.50;94819.66;5033664;28;20195;-75
2023/01/31 08:10:55;;;;;;;10.68;9.13;;;;;;;4.12;70.66;94816.16;5033224;28;20284;-74
2023/01/31 08:13:21;;;;;;;14.20;8.90;;;;;;;4.51;69.78;94818.13;5032979;28;20217;-73
2023/01/31 08:15:51;;;;;;;19.10;9.25;;;;;;;4.87;68.28;94820.97;5032669;28;20299;-73
2023/01/31 08:18:18;;;;;;;14.67;9.03;;;;;;;5.10;67.19;94821.44;5032916;28;20207;-76
2023/01/31 08:20:45;;;;;;;12.45;8.57;;;;;;;5.56;66.38;94820.63;5032399;28;20227;-75
2023/01/31 08:23:13;;;;;;;12.30;8.40;;;;;;;6.68;62.70;94813.31;5032809;28;20273;-77
2023/01/31 08:25:40;;;;;;;18.23;9.50;;;;;;;8.12;58.82;94791.09;5031846;28;20207;-76
2023/01/31 08:28:07;;;;;;;20.47;10.20;;;;;;;9.51;54.31;94792.69;5032836;28;20220;-79
2023/01/31 08:30:34;;;;;;;13.85;8.02;;;;;;;10.16;51.28;94792.09;5032013;28;20765;-77
2023/01/31 08:33:01;;;;;;;14.57;7.65;;;;;;;10.41;50.84;94791.22;5032707;28;20235;-76
2023/01/31 08:35:28;;;;;;;10.98;7.90;;;;;;;10.10;51.22;94789.78;5031550;28;20218;-74
2023/01/31 08:37:55;;;;;;;15.25;8.88;;;;;;;9.66;52.01;94790.50;5032581;28;20210;-78
2023/01/31 08:40:23;;;;;;;16.40;8.93;;;;;;;8.79;53.75;94773.94;5032004;28;20222;-78
2023/01/31 08:42:56;;;;;;;9.67;7.47;;;;;;;8.33;55.27;94789.69;5031161;28;20218;-74
2023/01/31 08:45:22;;;;;;;7.78;6.63;;;;;;;8.19;55.71;94797.63;5024234;28;20257;-76
2023/01/31 08:47:54;;;;;;;10.05;7.20;;;;;;;8.70;55.39;94793.63;5022111;28;20630;-74
2023/01/31 08:50:21;;;;;;;8.77;7.57;;;;;;;9.48;53.74;94810.53;5026440;28;20294;-77
2023/01/31 08:52:52;;;;;;;6.80;5.20;;;;;;;10.45;50.55;94800.38;5029913;28;20211;-76
2023/01/31 08:55:19;;;;;;;10.57;5.75;;;;;;;10.76;49.81;94794.97;5030271;28;20218;-77
2023/01/31 08:57:47;;;;;;;7.68;6.03;;;;;;;10.58;49.05;94786.34;5031104;28;20225;-77
2023/01/31 09:00:15;;;;;;;7.43;6.00;;;;;;;10.51;49.84;94795.91;5030240;28;20210;-75
2023/01/31 09:02:41;;;;;;;6.32;5.72;;;;;;;10.40;49.84;94794.66;5030475;28;20234;-75
2023/01/31 09:05:08;;;;;;;9.52;5.95;;;;;;;10.40;50.10;94795.47;5029619;28;20860;-77
2023/01/31 09:07:35;;;;;;;6.25;5.55;;;;;;;10.20;50.03;94798.75;5027705;28;20269;-75
2023/01/31 09:10:02;;;;;;;6.25;5.40;;;;;;;10.19;50.85;94802.16;5028296;28;20695;-75
2023/01/31 09:12:29;;;;;;;6.82;6.13;;;;;;;10.13;51.18;94799.84;5030095;28;20277;-75
2023/01/31 09:14:57;;;;;;;6.43;5.88;;;;;;;9.81;51.15;94802.69;5030030;28;20699;-76
2023/01/31 09:17:24;;;;;;;6.80;6.20;;;;;;;9.45;52.20;94795.44;5029830;28;20210;-75
2023/01/31 09:19:51;;;;;;;9.68;6.53;;;;;;;9.36;52.76;94785.59;5032114;28;20273;-75
2023/01/31 09:22:17;;;;;;;6.68;5.95;;;;;;;9.42;52.81;94785.38;5031295;28;20227;-75
2023/01/31 09:24:45;;;;;;;6.57;5.82;;;;;;;9.47;51.90;94791.13;5031999;28;20207;-76
2023/01/31 09:27:12;;;;;;;5.93;5.32;;;;;;;9.42;51.85;94779.47;5030124;28;20211;-77
2023/01/31 09:29:39;;;;;;;4.93;4.28;;;;;;;9.43;51.66;94781.13;5029877;28;20214;-76
2023/01/31 09:32:07;;;;;;;5.03;4.55;;;;;;;9.49;52.05;94781.75;5028186;28;20284;-75
2023/01/31 09:34:33;;;;;;;4.68;4.28;;;;;;;9.43;52.76;94771.81;5030255;28;20195;-73
2023/01/31 09:37:00;;;;;;;4.90;4.43;;;;;;;9.29;52.01;94763.84;5029429;28;20215;-75
2023/01/31 09:39:27;;;;;;;4.70;4.30;;;;;;;9.14;53.08;94764.38;5030430;28;20223;-75
2023/01/31 09:41:58;;;;;;;4.15;3.70;;;;;;;8.96;53.06;94775.09;5030245;28;20226;-77
2023/01/31 09:44:29;;;;;;;4.38;3.97;;;;;;;8.89;53.72;94773.66;5031406;28;21229;-74
2023/01/31 09:47:09;;;;;;;4.75;3.53;;;;;;;8.91;53.68;94761.75;5030779;28;20659;-77
2023/01/31 09:49:46;;;;;;;4.78;4.45;;;;;;;8.85;54.12;94757.72;5031198;28;20199;-76
2023/01/31 09:52:12;;;;;;;5.07;4.57;;;;;;;8.96;54.67;94744.69;5031484;28;20202;-74
2023/01/31 09:54:40;;;;;;;4.93;4.18;;;;;;;8.81;53.83;94721.50;5031178;28;20623;-76
2023/01/31 09:57:19;;;;;;;4.38;4.00;;;;;;;8.80;53.58;94755.31;5031054;28;20199;-74
2023/01/31 09:59:49;;;;;;;3.97;3.60;;;;;;;8.95;53.93;94745.56;5031164;28;20207;-76
2023/01/31 10:02:49;;;;;;;3.90;3.38;;;;;;;9.08;52.94;94754.44;5030993;28;20218;-78
2023/01/31 10:05:28;;;;;;;3.28;2.97;;;;;;;9.21;52.95;94748.06;5031258;28;20207;-74
2023/01/31 10:08:06;;;;;;;5.25;3.47;;;;;;;9.15;52.61;94745.75;5030200;28;20307;-77
2023/01/31 10:10:37;;;;;;;3.08;2.80;;;;;;;8.94;52.81;94749.78;5031009;28;20218;-75
2023/01/31 10:13:11;;;;;;;3.47;3.22;;;;;;;8.62;54.28;94733.09;5031143;28;20202;-76
2023/01/31 10:15:44;;;;;;;3.35;3.10;;;;;;;8.47;54.56;94743.69;5030749;28;20206;-75
2023/01/31 10:18:15;;;;;;;3.63;3.30;;;;;;;8.23;54.43;94732.56;5030589;28;20195;-75
2023/01/31 10:20:50;;;;;;;3.67;3.38;;;;;;;8.22;55.41;94735.97;5030250;28;20206;-76
2023/01/31 10:23:23;;;;;;;3.75;3.50;;;;;;;8.64;54.55;94736.41;5030762;28;20263;-77
2023/01/31 10:25:53;;;;;;;4.35;3.45;;;;;;;9.05;52.79;94730.00;5030775;28;20331;-76
2023/01/31 10:28:25;;;;;;;5.72;4.03;;;;;;;9.50;52.29;94727.63;5030224;28;20219;-74
2023/01/31 10:30:58;;;;;;;4.13;3.75;;;;;;;9.68;51.22;94731.22;5030788;28;20203;-74
2023/01/31 10:33:33;;;;;;;6.30;3.33;;;;;;;9.75;51.52;94726.75;5030557;28;20210;-76
2023/01/31 10:36:08;;;;;;;4.07;2.92;;;;;;;9.61;50.72;94708.66;5030908;28;20206;-76
2023/01/31 10:38:40;;;;;;;4.47;3.10;;;;;;;9.23;51.12;94715.88;5030301;28;20274;-75
2023/01/31 10:41:14;;;;;;;3.67;3.40;;;;;;;8.64;52.07;94708.56;5030688;28;20301;-77
2023/01/31 10:43:47;;;;;;;6.63;2.50;;;;;;;8.17;54.78;94718.38;5030493;28;20195;-74
2023/01/31 10:46:15;;;;;;;3.20;2.90;;;;;;;8.23;54.59;94711.47;5030360;28;20680;-74
2023/01/31 10:48:46;;;;;;;3.80;2.75;;;;;;;8.34;54.63;94714.56;5030049;28;20214;-77
2023/01/31 10:51:27;;;;;;;3.63;2.72;;;;;;;8.59;53.71;94724.75;5029322;28;20206;-75
2023/01/31 10:54:14;;;;;;;3.60;2.80;;;;;;;8.59;53.56;94725.59;5031018;28;20210;-75
2023/01/31 10:56:43;;;;;;;3.15;2.67;;;;;;;8.22;54.30;94685.34;5030237;28;20226;-75
2023/01/31 10:59:16;;;;;;;3.10;2.83;;;;;;;8.45;54.38;94720.94;5030332;28;20207;-75
2023/01/31 11:01:43;;;;;;;3.42;2.75;;;;;;;8.39;54.18;94725.38;5029485;28;20629;-75
2023/01/31 11:04:25;;;;;;;4.10;3.65;;;;;;;8.22;55.26;94730.91;5030244;28;20711;-75
2023/01/31 11:06:54;;;;;;;3.05;2.85;;;;;;;7.97;56.32;94722.38;5030559;28;20213;-76
2023/01/31 11:09:22;;;;;;;2.58;2.38;;;;;;;7.78;56.21;94722.06;5030078;28;21212;-74
2023/01/31 11:11:55;;;;;;;2.63;2.42;;;;;;;7.77;56.55;94718.72;5029474;28;20199;-75
2023/01/31 11:14:22;;;;;;;3.00;2.70;;;;;;;7.96;56.24;94716.47;5029991;28;20688;-75
2023/01/31 11:16:56;;;;;;;3.13;2.92;;;;;;;8.00;55.41;94734.94;5029845;28;20214;-75
2023/01/31 11:19:31;;;;;;;4.38;3.40;;;;;;;8.15;55.99;94725.22;5030115;28;20211;-74
2023/01/31 11:21:59;;;;;;;4.30;3.30;;;;;;;8.50;56.00;94730.94;5029294;28;20232;-74
2023/01/31 11:24:29;;;;;;;3.72;3.42;;;;;;;8.62;54.32;94729.75;5029951;28;20199;-76
2023/01/31 11:27:00;;;;;;;3.10;2.90;;;;;;;8.66;54.91;94737.16;5029996;28;20297;-76
2023/01/31 11:29:29;;;;;;;3.28;2.97;;;;;;;8.59;55.04;94737.44;5030211;28;20199;-76
2023/01/31 11:31:58;;;;;;;3.13;2.92;;;;;;;8.31;54.76;94740.75;5028809;28;20231;-75
2023/01/31 11:34:28;;;;;;;3.60;2.67;;;;;;;7.91;55.71;94738.56;5030448;28;21014;-76
2023/01/31 11:37:05;;;;;;;3.10;2.90;;;;;;;7.36;57.92;94740.06;5029775;28;20367;-77
2023/01/31 11:39:35;;;;;;;3.22;3.03;;;;;;;6.91;59.06;94746.31;5029390;28;20721;-75
2023/01/31 11:42:13;;;;;;;3.60;3.30;;;;;;;6.66;60.30;94749.41;5029040;28;20918;-77
2023/01/31 11:44:55;;;;;;;4.22;3.83;;;;;;;6.54;61.15;94748.84;5029924;28;20211;-75
2023/01/31 11:47:27;;;;;;;3.03;2.80;;;;;;;6.19;62.03;94747.13;5030065;28;20304;-78
2023/01/31 11:49:54;;;;;;;2.87;2.67;;;;;;;5.87;63.19;94756.16;5029589;28;20218;-76
2023/01/31 11:52:29;;;;;;;3.50;3.22;;;;;;;5.68;64.83;94763.28;5029102;28;20214;-76
2023/01/31 11:54:58;;;;;;;4.95;3.13;;;;;;;5.48;65.27;94748.50;5028374;28;20604;-78